Time;durP1;ratioP1;P1;durP2;ratioP2;P2;SDS_P1;SDS_P2;PMS_P1;PMS_P2;Temp;Humidity;BMP_temperature;BMP_pressure;BME280_temperature;BME280_humidity;BME280_pressure;Samples;Min_cycle;Max_cycle;Signal;HPM_P1;HPM_P2
2023/07/03 00:00:11;;;;;;;12.82;7.57;;;18.70;99.90;;;;;;4981287;28;20027;-72
2023/07/03 00:02:41;;;;;;;14.73;8.50;;;18.60;99.90;;;;;;4979654;28;20030;-72
2023/07/03 00:05:08;;;;;;;10.50;7.40;;;18.60;99.90;;;;;;4981148;28;20391;-72
2023/07/03 00:07:34;;;;;;;11.82;7.57;;;18.60;99.90;;;;;;4980969;28;20022;-73
2023/07/03 00:10:00;;;;;;;13.15;7.88;;;18.50;99.90;;;;;;4980897;28;20027;-72
2023/07/03 00:12:26;;;;;;;14.45;8.35;;;18.50;99.90;;;;;;4980967;28;20023;-72
2023/07/03 00:14:51;;;;;;;15.00;7.85;;;18.50;99.90;;;;;;4980938;28;20022;-72
2023/07/03 00:17:17;;;;;;;12.10;7.95;;;18.50;99.90;;;;;;4980791;28;20400;-72
2023/07/03 00:19:43;;;;;;;13.57;8.18;;;18.50;99.90;;;;;;4971545;28;20062;-72
2023/07/03 00:22:08;;;;;;;12.00;7.72;;;18.40;99.90;;;;;;4980538;28;20023;-72
2023/07/03 00:24:34;;;;;;;14.13;9.13;;;18.40;99.90;;;;;;5012069;28;20034;-72
2023/07/03 00:27:00;;;;;;;14.00;8.23;;;18.40;99.90;;;;;;4980816;28;20050;-72
2023/07/03 00:29:30;;;;;;;13.57;8.27;;;18.40;99.90;;;;;;4980573;28;20157;-72
2023/07/03 00:31:55;;;;;;;13.88;8.45;;;18.40;99.90;;;;;;4980549;28;20077;-72
2023/07/03 00:34:21;;;;;;;15.60;9.35;;;18.50;99.90;;;;;;4980455;28;20081;-72
2023/07/03 00:36:47;;;;;;;13.32;8.80;;;18.40;99.90;;;;;;4980230;28;20027;-72
2023/07/03 00:39:14;;;;;;;13.50;8.40;;;18.40;99.90;;;;;;4980549;28;20023;-72
2023/07/03 00:41:40;;;;;;;19.10;9.75;;;18.30;99.90;;;;;;4980539;28;20038;-72
2023/07/03 00:44:11;;;;;;;14.13;9.50;;;18.40;99.90;;;;;;4980441;28;20022;-72
2023/07/03 00:46:42;;;;;;;14.32;8.80;;;18.30;99.90;;;;;;4978909;28;20487;-72
2023/07/03 00:49:09;;;;;;;15.13;9.27;;;18.30;99.90;;;;;;4980525;28;20035;-72
2023/07/03 00:51:41;;;;;;;14.60;8.90;;;18.20;99.90;;;;;;4979868;28;20027;-72
2023/07/03 00:54:07;;;;;;;13.38;8.55;;;18.30;99.90;;;;;;4980139;28;20030;-73
2023/07/03 00:56:33;;;;;;;11.80;8.40;;;18.30;99.90;;;;;;4979406;28;20027;-72
2023/07/03 00:58:58;;;;;;;15.85;8.77;;;18.30;99.90;;;;;;4977188;28;20030;-72
2023/07/03 01:01:27;;;;;;;15.02;9.35;;;18.20;99.90;;;;;;5011186;28;20049;-72
2023/07/03 01:04:10;;;;;;;12.40;8.93;;;18.30;99.90;;;;;;4979947;28;20027;-72
2023/07/03 01:06:40;;;;;;;12.68;8.80;;;18.30;99.90;;;;;;4972478;28;20027;-73
2023/07/03 01:09:08;;;;;;;14.48;8.93;;;18.30;99.90;;;;;;4979880;28;20396;-72
2023/07/03 01:11:35;;;;;;;13.32;8.45;;;18.40;99.90;;;;;;4979777;28;20499;-72
2023/07/03 01:14:03;;;;;;;16.52;9.85;;;18.40;99.90;;;;;;4979729;28;20018;-72
2023/07/03 01:16:32;;;;;;;14.13;9.52;;;18.50;99.90;;;;;;4979898;28;20019;-73
2023/07/03 01:18:59;;;;;;;17.55;10.23;;;18.50;99.90;;;;;;4978480;28;20042;-69
2023/07/03 01:21:51;;;;;;;14.48;9.02;;;18.60;99.90;;;;;;4979185;28;20058;-72
2023/07/03 01:24:57;;;;;;;14.18;8.68;;;18.60;99.90;;;;;;4971117;28;20035;-71
2023/07/03 01:27:27;;;;;;;14.57;9.35;;;18.60;99.90;;;;;;4979092;28;20491;-73
2023/07/03 01:29:54;;;;;;;12.82;8.80;;;18.70;99.90;;;;;;4979391;28;20027;-72
2023/07/03 01:32:22;;;;;;;13.00;8.18;;;18.70;99.90;;;;;;5010998;28;20023;-72
2023/07/03 01:34:53;;;;;;;14.90;10.07;;;18.70;99.90;;;;;;4979255;28;20062;-72
2023/07/03 01:37:23;;;;;;;16.83;9.55;;;18.70;99.90;;;;;;4979547;28;20015;-71
2023/07/03 01:39:51;;;;;;;16.10;8.65;;;18.70;99.90;;;;;;4979283;28;20030;-72
2023/07/03 01:42:18;;;;;;;15.13;9.68;;;18.70;99.90;;;;;;4979443;28;20030;-72
2023/07/03 01:44:44;;;;;;;13.73;9.98;;;18.70;99.90;;;;;;4979177;28;20038;-72
2023/07/03 01:47:13;;;;;;;12.10;8.80;;;18.70;99.90;;;;;;4978126;28;20503;-71
2023/07/03 01:49:39;;;;;;;14.15;9.27;;;18.70;99.90;;;;;;4979059;28;20023;-72
2023/07/03 01:52:17;;;;;;;14.38;8.85;;;18.60;99.90;;;;;;5010358;28;20022;-72
2023/07/03 01:54:48;;;;;;;12.50;9.30;;;18.60;99.90;;;;;;4979188;28;20014;-72
2023/07/03 01:57:22;;;;;;;16.30;9.10;;;18.60;99.90;;;;;;5008163;28;20030;-72
2023/07/03 01:59:51;;;;;;;15.48;9.65;;;18.50;99.90;;;;;;4969260;28;20035;-70
2023/07/03 02:02:25;;;;;;;17.60;9.63;;;18.50;99.90;;;;;;4978778;28;20080;-70
2023/07/03 02:05:17;;;;;;;14.50;8.63;;;18.50;99.90;;;;;;4979072;28;20121;-71
2023/07/03 02:07:45;;;;;;;12.82;8.65;;;18.50;99.90;;;;;;4976350;28;20019;-72
2023/07/03 02:10:11;;;;;;;16.77;9.18;;;18.50;99.90;;;;;;4977604;28;20398;-72
2023/07/03 02:12:36;;;;;;;15.70;8.85;;;18.50;99.90;;;;;;4978785;28;20111;-72
2023/07/03 02:15:04;;;;;;;16.73;9.48;;;18.50;99.90;;;;;;4978629;28;20364;-72
2023/07/03 02:17:30;;;;;;;16.65;8.98;;;18.50;99.90;;;;;;4978741;28;20027;-72
2023/07/03 02:19:55;;;;;;;15.07;9.13;;;18.40;99.90;;;;;;4978477;28;20065;-72
2023/07/03 02:22:21;;;;;;;15.60;8.50;;;18.50;99.90;;;;;;4978296;28;20034;-72
2023/07/03 02:24:47;;;;;;;13.65;8.50;;;18.50;99.90;;;;;;4978649;28;20031;-72
2023/07/03 02:27:13;;;;;;;17.25;8.93;;;18.40;99.90;;;;;;4978514;28;20081;-72
2023/07/03 02:29:38;;;;;;;14.35;9.15;;;18.40;99.90;;;;;;4977171;28;20027;-72
2023/07/03 02:32:09;;;;;;;19.30;10.00;;;18.40;99.90;;;;;;4977342;28;20034;-72
2023/07/03 02:34:35;;;;;;;15.23;9.35;;;18.30;99.90;;;;;;4974021;28;20030;-72
2023/07/03 02:37:01;;;;;;;14.30;9.00;;;18.30;99.90;;;;;;4978154;28;20026;-72
2023/07/03 02:39:27;;;;;;;14.50;10.25;;;18.20;99.90;;;;;;5009583;28;20049;-72
2023/07/03 02:41:52;;;;;;;20.08;10.98;;;18.10;99.90;;;;;;4978337;28;20476;-72
2023/07/03 02:44:18;;;;;;;17.10;9.85;;;18.00;99.90;;;;;;4978542;28;20110;-72
2023/07/03 02:46:44;;;;;;;18.45;10.02;;;18.00;99.90;;;;;;4978199;28;20031;-72
2023/07/03 02:49:10;;;;;;;17.15;11.00;;;17.90;99.90;;;;;;4978256;28;20106;-72
2023/07/03 02:51:35;;;;;;;16.02;9.88;;;17.80;99.90;;;;;;4977970;28;20031;-72
2023/07/03 02:54:04;;;;;;;13.55;9.85;;;17.80;99.90;;;;;;4978189;28;20027;-72
2023/07/03 02:56:30;;;;;;;16.95;10.25;;;17.70;99.90;;;;;;4967844;28;20027;-72
2023/07/03 02:58:55;;;;;;;14.43;9.85;;;17.60;99.90;;;;;;4975725;28;20027;-72
2023/07/03 03:01:21;;;;;;;15.00;9.10;;;17.60;99.90;;;;;;5009010;28;20023;-72
2023/07/03 03:03:47;;;;;;;14.38;9.23;;;17.50;99.90;;;;;;4977808;28;20097;-72
2023/07/03 03:06:13;;;;;;;17.83;11.02;;;17.50;99.90;;;;;;5008094;28;20031;-71
2023/07/03 03:08:39;;;;;;;19.02;10.38;;;17.40;99.90;;;;;;4977520;28;20074;-72
2023/07/03 03:11:05;;;;;;;17.65;9.02;;;17.30;99.90;;;;;;4977737;28;20058;-71
2023/07/03 03:13:31;;;;;;;19.35;10.35;;;17.20;99.90;;;;;;4976360;28;20054;-71
2023/07/03 03:15:58;;;;;;;18.85;9.40;;;17.20;99.90;;;;;;4978178;28;20034;-71
2023/07/03 03:18:23;;;;;;;18.13;10.23;;;17.10;99.90;;;;;;5008831;28;20033;-71
2023/07/03 03:20:49;;;;;;;17.15;9.65;;;17.10;99.90;;;;;;4977427;28;20519;-71
2023/07/03 03:23:15;;;;;;;16.80;9.82;;;17.00;99.90;;;;;;4977728;28;20078;-71
2023/07/03 03:25:41;;;;;;;18.27;9.35;;;16.90;99.90;;;;;;4977735;28;20034;-71
2023/07/03 03:28:08;;;;;;;16.88;10.05;;;16.90;99.90;;;;;;4977767;28;20081;-71
2023/07/03 03:30:33;;;;;;;18.50;9.35;;;16.80;99.90;;;;;;4977453;28;20037;-71
2023/07/03 03:32:59;;;;;;;17.05;9.95;;;16.80;99.90;;;;;;4977670;28;20058;-71
2023/07/03 03:35:25;;;;;;;18.63;10.15;;;16.70;99.90;;;;;;4977391;28;20074;-71
2023/07/03 03:37:50;;;;;;;18.98;11.32;;;16.60;99.90;;;;;;4977773;28;20018;-71
2023/07/03 03:40:16;;;;;;;17.40;9.82;;;16.60;99.90;;;;;;4976303;28;20081;-71
2023/07/03 03:42:42;;;;;;;17.08;9.55;;;16.70;99.90;;;;;;4977507;28;20031;-71
2023/07/03 03:45:08;;;;;;;21.33;10.65;;;16.70;99.90;;;;;;4977548;28;20026;-71
2023/07/03 03:47:33;;;;;;;17.13;10.90;;;16.70;99.90;;;;;;5008751;28;20058;-72
2023/07/03 03:49:59;;;;;;;15.77;9.73;;;16.70;99.90;;;;;;4977401;28;20039;-71
2023/07/03 03:52:25;;;;;;;15.85;9.65;;;16.70;99.90;;;;;;4977313;28;20033;-71
2023/07/03 03:54:50;;;;;;;16.95;10.02;;;16.70;99.90;;;;;;4966675;28;20031;-71
2023/07/03 03:57:16;;;;;;;19.65;10.82;;;16.70;99.90;;;;;;4974938;28;20018;-71
2023/07/03 03:59:42;;;;;;;19.63;10.80;;;16.70;99.90;;;;;;4977307;28;20037;-72
2023/07/03 04:02:08;;;;;;;18.63;10.10;;;16.60;99.90;;;;;;4977592;28;20038;-71
2023/07/03 04:04:34;;;;;;;17.48;10.10;;;16.60;99.90;;;;;;4977442;28;20058;-71
2023/07/03 04:07:00;;;;;;;16.98;9.75;;;16.60;99.90;;;;;;4977184;28;20034;-71
2023/07/03 04:09:26;;;;;;;17.27;10.43;;;16.60;99.90;;;;;;4967152;28;20471;-72
2023/07/03 04:11:52;;;;;;;16.73;11.25;;;16.50;99.90;;;;;;4977062;28;20050;-71
2023/07/03 04:14:18;;;;;;;25.42;10.95;;;16.50;99.90;;;;;;4977395;28;20019;-71
2023/07/03 04:16:45;;;;;;;17.35;9.65;;;16.40;99.90;;;;;;5008450;28;20023;-71
2023/07/03 04:19:10;;;;;;;22.95;10.25;;;16.40;99.90;;;;;;4977330;28;20015;-72
2023/07/03 04:21:38;;;;;;;19.77;10.77;;;16.30;99.90;;;;;;4976865;28;20054;-71
2023/07/03 04:24:05;;;;;;;16.17;10.18;;;16.30;99.90;;;;;;4977246;28;20023;-72
2023/07/03 04:26:31;;;;;;;21.38;10.00;;;16.30;99.90;;;;;;5008337;28;20418;-71
2023/07/03 04:28:58;;;;;;;21.75;11.27;;;16.20;99.90;;;;;;4977350;28;20031;-71
2023/07/03 04:31:24;;;;;;;20.05;10.90;;;16.20;99.90;;;;;;4979345;28;20034;-71
2023/07/03 04:33:49;;;;;;;20.10;9.63;;;16.10;99.90;;;;;;4980641;28;20451;-71
2023/07/03 04:36:20;;;;;;;22.05;11.40;;;16.10;99.90;;;;;;4980471;28;20026;-72
2023/07/03 04:38:47;;;;;;;19.25;11.05;;;16.10;99.90;;;;;;4980512;28;20510;-72
2023/07/03 04:41:14;;;;;;;17.17;9.50;;;16.00;99.90;;;;;;4979188;28;20040;-72
2023/07/03 04:43:44;;;;;;;20.15;10.52;;;16.00;99.90;;;;;;4980679;28;20038;-72
2023/07/03 04:46:11;;;;;;;16.98;10.13;;;16.00;99.90;;;;;;4980498;28;20027;-72
2023/07/03 04:48:36;;;;;;;20.27;10.80;;;16.00;99.90;;;;;;4979256;28;20113;-72
2023/07/03 04:51:03;;;;;;;16.33;10.55;;;16.00;99.90;;;;;;4979769;28;20027;-72
2023/07/03 04:53:31;;;;;;;19.20;11.68;;;16.10;99.90;;;;;;4980522;28;20025;-72
2023/07/03 04:55:57;;;;;;;16.33;10.27;;;16.00;99.90;;;;;;4980010;28;20019;-72
2023/07/03 04:58:23;;;;;;;24.75;11.18;;;16.10;99.90;;;;;;4976537;28;20031;-72
2023/07/03 05:00:49;;;;;;;18.48;11.43;;;16.10;99.90;;;;;;4979878;28;20074;-72
2023/07/03 05:03:15;;;;;;;14.57;10.63;;;16.10;99.90;;;;;;4980494;28;20369;-72
2023/07/03 05:05:41;;;;;;;19.60;10.52;;;16.10;99.90;;;;;;4979772;28;20027;-72
2023/07/03 05:08:06;;;;;;;18.92;11.23;;;16.20;99.90;;;;;;4980290;28;20093;-72
2023/07/03 05:10:32;;;;;;;23.35;10.75;;;16.20;99.90;;;;;;4978542;28;20491;-72
2023/07/03 05:12:58;;;;;;;20.08;10.75;;;16.30;99.90;;;;;;4972260;28;20027;-72
2023/07/03 05:15:24;;;;;;;20.70;11.73;;;16.30;99.90;;;;;;4978702;28;20093;-72
2023/07/03 05:17:52;;;;;;;22.13;11.25;;;16.40;99.90;;;;;;4980096;28;20019;-72
2023/07/03 05:20:19;;;;;;;21.05;10.88;;;16.50;99.90;;;;;;4979610;28;20516;-73
2023/07/03 05:22:47;;;;;;;23.88;11.65;;;16.60;99.90;;;;;;4980071;28;20051;-72
2023/07/03 05:25:14;;;;;;;22.83;11.52;;;16.70;99.90;;;;;;4979578;28;20034;-72
2023/07/03 05:27:39;;;;;;;19.40;11.23;;;16.70;99.90;;;;;;4979894;28;20114;-72
2023/07/03 05:30:07;;;;;;;25.30;11.20;;;16.80;99.90;;;;;;4979475;28;20058;-72
2023/07/03 05:32:33;;;;;;;18.42;10.15;;;16.80;99.90;;;;;;5011072;28;20030;-72
2023/07/03 05:35:00;;;;;;;17.38;11.23;;;16.90;99.90;;;;;;4979430;28;20050;-73
2023/07/03 05:37:25;;;;;;;15.80;10.95;;;16.90;99.90;;;;;;4979449;28;20027;-72
2023/07/03 05:39:51;;;;;;;21.00;11.07;;;17.00;99.90;;;;;;5010703;28;20026;-72
2023/07/03 05:42:18;;;;;;;21.52;10.95;;;17.00;99.90;;;;;;4979411;28;20089;-72
2023/07/03 05:44:45;;;;;;;19.20;11.45;;;17.00;99.90;;;;;;4979201;28;20034;-72
2023/07/03 05:47:12;;;;;;;22.92;11.65;;;17.10;99.90;;;;;;4979472;28;20113;-72
2023/07/03 05:49:38;;;;;;;18.50;11.23;;;17.10;99.90;;;;;;4973418;28;20026;-72
2023/07/03 05:52:05;;;;;;;18.52;10.15;;;17.20;99.90;;;;;;4972244;28;20037;-71
2023/07/03 05:54:31;;;;;;;19.83;10.25;;;17.20;99.90;;;;;;4978944;28;20027;-70
2023/07/03 05:57:04;;;;;;;19.17;12.77;;;17.30;99.90;;;;;;4979052;28;20030;-70
2023/07/03 05:59:29;;;;;;;20.17;10.70;;;17.30;99.90;;;;;;4978681;28;20023;-71
2023/07/03 06:01:56;;;;;;;22.25;11.23;;;17.40;99.90;;;;;;4979026;28;20074;-71
2023/07/03 06:04:22;;;;;;;22.77;12.80;;;17.50;99.90;;;;;;4978477;28;20058;-71
2023/07/03 06:06:57;;;;;;;24.02;10.63;;;17.40;99.90;;;;;;4977661;28;20023;-71
2023/07/03 06:09:24;;;;;;;19.77;10.38;;;17.40;99.90;;;;;;4977705;28;20481;-70
2023/07/03 06:11:50;;;;;;;18.13;10.80;;;17.50;99.90;;;;;;4974431;28;20018;-71
2023/07/03 06:14:17;;;;;;;18.83;10.77;;;17.50;99.90;;;;;;4979129;28;20026;-70
2023/07/03 06:16:47;;;;;;;17.58;11.55;;;17.60;99.90;;;;;;4979063;28;20101;-70
2023/07/03 06:19:15;;;;;;;18.25;11.77;;;17.70;99.90;;;;;;4979005;28;20029;-70
2023/07/03 06:21:40;;;;;;;21.98;12.10;;;17.80;99.90;;;;;;4978458;28;20082;-70
2023/07/03 06:24:09;;;;;;;20.52;11.63;;;17.90;99.90;;;;;;4978888;28;20479;-70
2023/07/03 06:26:35;;;;;;;28.23;12.05;;;17.90;99.90;;;;;;4978709;28;20070;-70
2023/07/03 06:29:02;;;;;;;26.08;12.88;;;17.80;99.90;;;;;;4970527;28;20034;-70
2023/07/03 06:31:28;;;;;;;18.35;11.43;;;17.90;99.90;;;;;;4978725;28;20058;-71
2023/07/03 06:33:54;;;;;;;31.42;10.65;;;18.00;99.90;;;;;;4977523;28;20435;-71
2023/07/03 06:36:21;;;;;;;20.63;11.77;;;18.00;99.90;;;;;;5009506;28;20034;-71
2023/07/03 06:38:58;;;;;;;20.80;11.27;;;18.00;99.90;;;;;;4977694;28;20395;-71
2023/07/03 06:41:27;;;;;;;21.98;10.90;;;18.20;99.90;;;;;;4978531;28;20396;-70
2023/07/03 06:43:52;;;;;;;23.05;11.52;;;18.20;99.90;;;;;;5009925;28;20496;-70
2023/07/03 06:46:19;;;;;;;19.17;10.98;;;18.20;99.90;;;;;;4977465;28;20415;-70
2023/07/03 06:48:45;;;;;;;19.85;11.88;;;18.30;99.90;;;;;;4973218;28;20027;-71
2023/07/03 06:51:12;;;;;;;20.67;11.35;;;18.50;99.90;;;;;;4974499;28;20107;-71
2023/07/03 06:53:39;;;;;;;23.65;11.15;;;18.50;99.90;;;;;;4964661;28;20492;-71
2023/07/03 06:56:05;;;;;;;23.13;11.80;;;18.70;99.90;;;;;;4970111;28;20095;-71
2023/07/03 06:58:32;;;;;;;20.48;10.70;;;19.10;99.90;;;;;;4959347;28;20030;-71
2023/07/03 07:01:04;;;;;;;21.95;11.57;;;19.30;99.90;;;;;;4968763;28;20018;-71
2023/07/03 07:03:29;;;;;;;18.83;10.18;;;19.50;99.90;;;;;;4966621;28;20035;-71
2023/07/03 07:05:55;;;;;;;19.05;10.75;;;19.50;99.90;;;;;;4967395;28;20069;-70
2023/07/03 07:08:21;;;;;;;17.05;10.25;;;19.50;99.90;;;;;;4966123;28;20031;-71
2023/07/03 07:10:46;;;;;;;23.70;11.27;;;19.30;99.90;;;;;;4977914;28;20027;-71
2023/07/03 07:13:12;;;;;;;23.85;10.85;;;19.40;99.90;;;;;;4978361;28;20207;-71
2023/07/03 07:15:40;;;;;;;19.58;9.75;;;19.60;99.90;;;;;;4978038;28;20118;-71
2023/07/03 07:18:07;;;;;;;20.63;10.25;;;19.80;99.90;;;;;;4972110;28;20038;-71
2023/07/03 07:20:37;;;;;;;16.95;9.50;;;20.20;99.90;;;;;;4975101;28;20047;-71
2023/07/03 07:23:03;;;;;;;18.00;10.52;;;20.40;99.90;;;;;;4976329;28;20054;-71
2023/07/03 07:25:29;;;;;;;16.25;9.40;;;20.40;99.90;;;;;;4976438;28;20062;-71
2023/07/03 07:27:54;;;;;;;15.13;8.80;;;20.40;99.90;;;;;;4976384;28;20031;-71
2023/07/03 07:30:20;;;;;;;18.42;8.52;;;20.20;99.90;;;;;;4976729;28;20034;-71
2023/07/03 07:32:49;;;;;;;18.35;8.75;;;20.20;99.90;;;;;;4974504;28;20031;-71
2023/07/03 07:35:15;;;;;;;19.42;10.32;;;20.30;99.90;;;;;;4974240;28;20022;-71
2023/07/03 07:37:42;;;;;;;16.00;8.75;;;20.40;99.90;;;;;;4976465;28;20022;-71
2023/07/03 07:40:08;;;;;;;20.67;9.18;;;20.60;99.90;;;;;;4973793;28;20404;-71
2023/07/03 07:42:34;;;;;;;16.92;9.85;;;20.80;99.90;;;;;;4973950;28;20402;-71
2023/07/03 07:45:00;;;;;;;15.73;8.55;;;21.00;99.90;;;;;;4975545;28;20113;-71
2023/07/03 07:47:26;;;;;;;21.02;8.05;;;21.20;99.90;;;;;;4976782;28;20050;-71
2023/07/03 07:49:51;;;;;;;11.93;7.07;;;21.20;99.90;;;;;;4975830;28;20026;-72
2023/07/03 07:52:17;;;;;;;15.50;7.70;;;21.20;99.90;;;;;;4976373;28;20023;-71
2023/07/03 07:54:43;;;;;;;14.35;7.60;;;21.10;99.90;;;;;;4976144;28;20046;-71
2023/07/03 07:57:08;;;;;;;11.95;6.53;;;20.90;99.90;;;;;;4975804;28;20026;-71
2023/07/03 07:59:35;;;;;;;12.02;6.90;;;20.80;99.90;;;;;;4973075;28;20046;-71
2023/07/03 08:02:00;;;;;;;12.75;7.55;;;20.70;99.90;;;;;;4976760;28;20031;-71
2023/07/03 08:04:26;;;;;;;12.30;6.50;;;20.70;99.90;;;;;;4972581;28;20034;-71
2023/07/03 08:06:52;;;;;;;14.25;6.57;;;20.60;99.90;;;;;;4979320;28;20027;-71
2023/07/03 08:09:18;;;;;;;9.80;5.78;;;20.80;99.90;;;;;;4978204;28;20034;-71
2023/07/03 08:11:44;;;;;;;11.85;6.72;;;21.00;99.90;;;;;;4979902;28;20031;-71
2023/07/03 08:14:10;;;;;;;13.10;7.05;;;21.00;99.90;;;;;;4980457;28;20034;-71
2023/07/03 08:16:36;;;;;;;10.25;5.20;;;21.20;99.90;;;;;;4980308;28;20034;-71
2023/07/03 08:19:03;;;;;;;13.52;6.90;;;21.40;99.90;;;;;;4976212;28;20039;-71
2023/07/03 08:21:28;;;;;;;15.43;6.57;;;21.60;99.90;;;;;;4978517;28;20050;-74
2023/07/03 08:23:54;;;;;;;22.35;7.18;;;21.60;99.90;;;;;;4978071;28;20031;-73
2023/07/03 08:26:22;;;;;;;16.17;6.13;;;21.70;99.90;;;;;;4977364;28;20136;-71
2023/07/03 08:28:47;;;;;;;13.23;6.28;;;21.70;99.90;;;;;;5008088;28;20042;-71
2023/07/03 08:31:13;;;;;;;13.65;7.32;;;21.90;99.90;;;;;;4979464;28;20034;-71
2023/07/03 08:33:39;;;;;;;10.90;7.03;;;21.90;99.90;;;;;;4979788;28;20018;-72
2023/07/03 08:36:05;;;;;;;11.50;6.53;;;22.00;99.90;;;;;;4979269;28;20011;-71
2023/07/03 08:38:31;;;;;;;14.57;6.90;;;22.10;99.90;;;;;;4979040;28;20038;-72
2023/07/03 08:40:59;;;;;;;12.10;5.97;;;22.00;99.90;;;;;;4979443;28;20027;-71
2023/07/03 08:43:30;;;;;;;13.65;6.65;;;21.90;99.90;;;;;;4979043;28;20027;-71
2023/07/03 08:45:57;;;;;;;10.15;5.78;;;21.90;99.90;;;;;;4976441;28;20475;-71
2023/07/03 08:48:27;;;;;;;10.50;7.22;;;22.00;99.90;;;;;;4974920;28;20031;-71
2023/07/03 08:50:59;;;;;;;12.93;6.50;;;21.90;99.90;;;;;;4975311;28;20041;-71
2023/07/03 08:53:41;;;;;;;13.65;7.78;;;21.50;99.90;;;;;;4979221;28;20038;-72
2023/07/03 08:56:17;;;;;;;10.68;6.63;;;21.70;99.90;;;;;;4978049;28;20014;-70
2023/07/03 08:58:49;;;;;;;10.45;5.88;;;21.50;99.90;;;;;;4974292;28;20046;-71
2023/07/03 09:01:38;;;;;;;7.78;5.22;;;21.50;99.90;;;;;;4976662;28;20026;-72
2023/07/03 09:04:32;;;;;;;10.85;6.18;;;21.40;99.90;;;;;;4977605;28;20503;-71
2023/07/03 09:07:02;;;;;;;12.15;6.13;;;21.20;99.90;;;;;;4977804;28;20109;-71
2023/07/03 09:09:52;;;;;;;14.23;6.63;;;21.40;99.90;;;;;;4978506;28;20106;-71
2023/07/03 09:12:24;;;;;;;10.77;6.37;;;21.60;99.90;;;;;;4979142;28;20022;-71
2023/07/03 09:15:01;;;;;;;12.05;5.93;;;21.40;99.90;;;;;;4977777;28;20030;-73
2023/07/03 09:17:27;;;;;;;13.38;6.07;;;21.50;99.90;;;;;;4978897;28;20027;-71
2023/07/03 09:19:56;;;;;;;11.98;6.38;;;21.70;99.90;;;;;;4978199;28;20030;-72
2023/07/03 09:22:27;;;;;;;10.77;5.57;;;22.00;99.90;;;;;;4978819;28;20033;-71
2023/07/03 09:24:58;;;;;;;14.15;6.28;;;22.10;99.90;;;;;;4977546;28;20077;-71
2023/07/03 09:27:28;;;;;;;10.68;5.57;;;22.30;99.90;;;;;;4979272;28;20018;-70
2023/07/03 09:30:01;;;;;;;11.90;5.72;;;22.10;99.90;;;;;;4978518;28;20027;-71
2023/07/03 09:32:30;;;;;;;11.65;5.78;;;22.10;99.90;;;;;;4979044;28;20109;-70
2023/07/03 09:35:35;;;;;;;10.40;5.43;;;22.00;99.90;;;;;;4978786;28;20023;-70
2023/07/03 09:38:01;;;;;;;10.20;5.82;;;21.80;99.90;;;;;;4960089;28;20069;-71
2023/07/03 09:40:32;;;;;;;10.55;5.50;;;21.70;99.90;;;;;;4977445;28;20037;-70
2023/07/03 09:42:59;;;;;;;13.52;5.97;;;21.40;99.90;;;;;;4977129;28;20462;-71
2023/07/03 09:45:31;;;;;;;12.05;6.15;;;21.40;99.90;;;;;;4978814;28;20027;-72
2023/07/03 09:48:01;;;;;;;13.02;6.38;;;21.50;99.90;;;;;;4978193;28;20161;-72
2023/07/03 09:50:30;;;;;;;10.25;5.82;;;21.70;99.90;;;;;;4977915;28;20038;-72
2023/07/03 09:52:57;;;;;;;9.50;5.30;;;21.90;99.90;;;;;;4978532;28;20086;-73
2023/07/03 09:55:24;;;;;;;12.68;5.90;;;22.00;99.90;;;;;;4978466;28;20026;-72
2023/07/03 09:57:50;;;;;;;10.50;6.10;;;22.30;99.90;;;;;;4975942;28;20078;-71
2023/07/03 10:00:20;;;;;;;9.70;5.53;;;22.60;99.90;;;;;;4977958;28;20030;-72
2023/07/03 10:02:50;;;;;;;9.23;5.45;;;22.80;99.90;;;;;;4978550;28;20545;-72
2023/07/03 10:05:19;;;;;;;10.75;6.05;;;22.90;99.90;;;;;;4978093;28;20033;-72
2023/07/03 10:07:46;;;;;;;9.52;4.93;;;23.10;99.90;;;;;;4978530;28;20027;-73
2023/07/03 10:10:19;;;;;;;7.85;4.50;;;22.90;99.90;;;;;;4977254;28;20050;-72
2023/07/03 10:12:58;;;;;;;10.82;5.10;;;22.90;99.90;;;;;;4975162;28;20031;-72
2023/07/03 10:15:29;;;;;;;10.20;4.63;;;23.20;99.90;;;;;;4974801;28;20019;-72
2023/07/03 10:18:25;;;;;;;12.20;5.53;;;23.50;99.90;;;;;;4977624;28;20031;-72
2023/07/03 10:20:51;;;;;;;9.73;5.07;;;23.90;99.90;;;;;;4975151;28;20523;-71
2023/07/03 10:23:30;;;;;;;9.02;4.93;;;24.00;99.90;;;;;;4976538;28;20034;-71
2023/07/03 10:26:06;;;;;;;11.23;5.43;;;23.90;99.90;;;;;;4977797;28;20042;-72
2023/07/03 10:28:41;;;;;;;15.13;6.18;;;24.20;99.90;;;;;;4974919;28;20037;-72
2023/07/03 10:31:13;;;;;;;8.60;4.90;;;24.60;99.90;;;;;;4977542;28;20464;-72
2023/07/03 10:33:45;;;;;;;10.93;4.78;;;25.00;99.90;;;;;;4977829;28;20373;-71
2023/07/03 10:36:16;;;;;;;10.18;5.20;;;25.10;99.90;;;;;;4976080;28;20522;-71
2023/07/03 10:38:55;;;;;;;8.00;4.90;;;24.90;99.90;;;;;;4976959;28;20026;-71
2023/07/03 10:41:40;;;;;;;10.80;5.20;;;24.80;99.90;;;;;;4974819;28;20022;-72
2023/07/03 10:44:15;;;;;;;9.88;4.68;;;25.00;99.90;;;;;;4977441;28;20551;-71
2023/07/03 10:46:44;;;;;;;9.52;5.68;;;24.50;99.90;;;;;;4977681;28;20050;-70
2023/07/03 10:49:17;;;;;;;7.97;4.90;;;24.20;99.90;;;;;;4975421;28;20398;-71
2023/07/03 10:51:50;;;;;;;8.95;4.93;;;24.20;99.90;;;;;;4977318;28;20061;-71
2023/07/03 10:54:28;;;;;;;9.15;5.47;;;24.10;99.90;;;;;;4976653;28;20055;-71
2023/07/03 10:56:58;;;;;;;11.07;4.88;;;24.20;99.90;;;;;;5006083;28;20025;-70
2023/07/03 10:59:27;;;;;;;7.10;5.05;;;24.20;99.90;;;;;;4973974;28;20077;-71
2023/07/03 11:01:56;;;;;;;9.20;5.10;;;24.20;99.90;;;;;;4977305;28;20038;-71
2023/07/03 11:04:48;;;;;;;8.57;5.20;;;24.50;99.90;;;;;;4974609;28;20038;-71
2023/07/03 11:07:38;;;;;;;7.10;4.38;;;24.60;99.90;;;;;;4974615;28;20065;-70
2023/07/03 11:10:07;;;;;;;10.65;5.68;;;24.50;99.90;;;;;;4975558;28;20026;-70
2023/07/03 11:12:42;;;;;;;10.27;5.70;;;24.60;99.90;;;;;;4977029;28;20327;-71
2023/07/03 11:15:17;;;;;;;9.13;5.13;;;24.60;99.90;;;;;;4975342;28;20038;-72
2023/07/03 11:18:17;;;;;;;8.68;5.32;;;25.00;99.90;;;;;;4976920;28;20501;-71
2023/07/03 11:21:07;;;;;;;10.13;5.20;;;24.70;99.90;;;;;;4974601;28;20129;-71
2023/07/03 11:23:50;;;;;;;9.02;4.22;;;24.80;99.90;;;;;;4975573;28;20054;-71
2023/07/03 11:26:28;;;;;;;10.85;4.47;;;25.00;99.90;;;;;;4991966;28;20035;-71
2023/07/03 11:28:55;;;;;;;9.75;4.78;;;25.10;99.90;;;;;;4976313;28;20139;-71
2023/07/03 11:31:24;;;;;;;7.72;4.40;;;25.00;99.90;;;;;;4976798;28;20026;-71
2023/07/03 11:33:51;;;;;;;8.55;4.72;;;24.80;99.90;;;;;;4977067;28;20034;-70
2023/07/03 11:36:38;;;;;;;7.95;4.82;;;24.70;99.90;;;;;;4976824;28;20027;-70
2023/07/03 11:39:13;;;;;;;8.35;4.65;;;24.40;99.90;;;;;;4974821;28;20085;-71
2023/07/03 11:41:44;;;;;;;11.52;4.78;;;24.20;99.90;;;;;;4981026;28;20575;-71
2023/07/03 11:44:28;;;;;;;12.07;5.10;;;24.40;99.90;;;;;;4979429;28;20038;-70
2023/07/03 11:46:56;;;;;;;8.48;4.82;;;24.60;99.90;;;;;;4978123;28;20389;-71
2023/07/03 11:49:31;;;;;;;8.75;5.00;;;24.70;99.90;;;;;;4978368;28;20031;-73
2023/07/03 11:52:02;;;;;;;8.35;4.75;;;24.80;99.90;;;;;;4976476;28;20070;-79
2023/07/03 11:54:31;;;;;;;9.07;4.40;;;24.90;99.90;;;;;;4980551;28;20026;-73
2023/07/03 11:57:07;;;;;;;6.85;4.63;;;25.10;99.90;;;;;;4979155;28;20034;-72
2023/07/03 11:59:39;;;;;;;8.07;4.63;;;24.70;99.90;;;;;;4978136;28;20058;-73
2023/07/03 12:02:11;;;;;;;6.72;4.20;;;25.10;99.90;;;;;;4980353;28;20033;-74
2023/07/03 12:04:43;;;;;;;8.82;4.55;;;25.20;99.90;;;;;;4980300;28;20073;-74
2023/07/03 12:07:35;;;;;;;9.35;4.68;;;25.10;99.90;;;;;;4979759;28;20022;-72
2023/07/03 12:10:19;;;;;;;8.77;4.30;;;25.00;99.90;;;;;;4974738;28;20038;-72
2023/07/03 12:13:23;;;;;;;5.40;3.90;;;24.90;99.90;;;;;;4981055;28;20400;-72
2023/07/03 12:15:56;;;;;;;8.57;4.25;;;25.00;99.90;;;;;;4979505;28;20011;-72
2023/07/03 12:18:22;;;;;;;8.88;3.90;;;25.00;99.90;;;;;;4980012;28;20146;-72
2023/07/03 12:20:55;;;;;;;7.28;4.70;;;25.20;99.90;;;;;;4979541;28;20066;-71
2023/07/03 12:23:35;;;;;;;7.53;3.75;;;25.40;99.90;;;;;;4979977;28;20509;-72
2023/07/03 12:26:02;;;;;;;12.38;4.82;;;25.80;99.90;;;;;;4979990;28;20470;-73
2023/07/03 12:28:28;;;;;;;9.95;4.28;;;26.20;99.90;;;;;;4979912;28;20514;-72
2023/07/03 12:31:09;;;;;;;8.40;4.60;;;26.40;99.90;;;;;;4977260;28;20058;-73
2023/07/03 12:33:35;;;;;;;8.93;4.40;;;26.40;99.90;;;;;;4980493;28;20031;-74
2023/07/03 12:36:00;;;;;;;8.57;4.75;;;26.40;99.90;;;;;;4980579;28;20027;-74
2023/07/03 12:38:27;;;;;;;7.28;4.38;;;26.20;99.90;;;;;;5011954;28;20033;-74
2023/07/03 12:40:53;;;;;;;6.32;3.85;;;26.10;99.90;;;;;;4980337;28;20023;-73
2023/07/03 12:43:19;;;;;;;5.80;4.15;;;26.00;99.90;;;;;;4980855;28;20023;-75
2023/07/03 12:45:53;;;;;;;6.75;4.15;;;26.10;99.90;;;;;;4980424;28;20026;-74